createdAt,value
2018-04-13T00:00:56.070Z,29.90
2018-04-13T00:03:23.463Z,34.00
2018-04-13T00:05:50.851Z,32.77
2018-04-13T00:08:18.230Z,32.77
2018-04-13T00:10:45.675Z,30.83
2018-04-13T00:13:13.067Z,30.73
2018-04-13T00:15:40.463Z,32.10
2018-04-13T00:18:07.850Z,31.70
2018-04-13T00:20:35.235Z,33.30
2018-04-13T00:23:02.626Z,34.50
2018-04-13T00:25:30.020Z,34.43
2018-04-13T00:27:57.398Z,34.03
2018-04-13T00:30:24.788Z,33.87
2018-04-13T00:32:52.190Z,33.53
2018-04-13T00:35:19.579Z,32.57
2018-04-13T00:37:47.091Z,32.30
2018-04-13T00:40:14.479Z,30.60
2018-04-13T00:42:41.863Z,33.67
2018-04-13T00:45:09.252Z,32.33
2018-04-13T00:47:36.633Z,32.50
2018-04-13T00:50:04.187Z,36.70
2018-04-13T00:52:31.559Z,35.63
2018-04-13T00:54:58.943Z,36.63
2018-04-13T00:57:26.338Z,36.53
2018-04-13T00:59:53.720Z,34.47
2018-04-13T01:02:21.111Z,34.27
2018-04-13T01:04:48.491Z,34.60
2018-04-13T01:07:15.993Z,34.27
2018-04-13T01:09:43.364Z,37.57
2018-04-13T01:12:10.804Z,38.00
2018-04-13T01:14:38.275Z,38.70
2018-04-13T01:17:05.659Z,39.30
2018-04-13T01:19:33.055Z,37.40
2018-04-13T01:22:00.443Z,38.00
2018-04-13T01:24:27.830Z,40.57
2018-04-13T01:26:55.218Z,41.23
2018-04-13T01:29:22.606Z,40.40
2018-04-13T01:31:49.992Z,40.77
2018-04-13T01:34:17.379Z,43.80
2018-04-13T01:36:44.771Z,41.60
2018-04-13T01:39:12.157Z,41.20
2018-04-13T01:41:39.550Z,40.77
2018-04-13T01:44:06.922Z,38.33
2018-04-13T01:46:34.319Z,37.23
2018-04-13T01:49:01.695Z,38.30
2018-04-13T01:51:29.096Z,38.57
2018-04-13T01:53:56.481Z,39.50
2018-04-13T01:56:23.855Z,40.87
2018-04-13T01:58:51.250Z,40.70
2018-04-13T02:01:18.631Z,42.30
2018-04-13T02:03:46.015Z,44.30
2018-04-13T02:06:13.391Z,48.07
2018-04-13T02:08:40.782Z,42.03
2018-04-13T02:11:08.164Z,42.00
2018-04-13T02:13:35.554Z,38.83
2018-04-13T02:16:02.938Z,39.00
2018-04-13T02:18:30.318Z,44.00
2018-04-13T02:20:57.707Z,46.03
2018-04-13T02:23:25.094Z,47.83
2018-04-13T02:25:52.579Z,48.50
2018-04-13T02:28:19.944Z,49.17
2018-04-13T02:30:47.339Z,50.00
2018-04-13T02:33:14.723Z,51.37
2018-04-13T02:35:42.119Z,55.93
2018-04-13T02:38:09.515Z,49.33
2018-04-13T02:40:36.902Z,48.30
2018-04-13T02:43:04.287Z,43.73
2018-04-13T02:45:31.674Z,44.80
2018-04-13T02:47:59.064Z,51.97
2018-04-13T02:50:26.462Z,47.00
2018-04-13T02:52:54.166Z,45.13
2018-04-13T02:55:21.561Z,42.30
2018-04-13T02:57:48.951Z,44.23
2018-04-13T03:00:16.349Z,42.10
2018-04-13T03:02:43.723Z,45.93
2018-04-13T03:05:11.115Z,42.93
2018-04-13T03:07:38.514Z,41.53
2018-04-13T03:10:05.890Z,45.47
2018-04-13T03:12:33.267Z,40.17
2018-04-13T03:15:00.647Z,44.10
2018-04-13T03:17:28.043Z,46.57
2018-04-13T03:19:55.418Z,44.73
2018-04-13T03:22:22.811Z,47.63
2018-04-13T03:24:50.191Z,46.50
2018-04-13T03:27:17.583Z,42.00
2018-04-13T03:29:44.961Z,43.00
2018-04-13T03:32:12.368Z,44.50
2018-04-13T03:34:39.748Z,43.40
2018-04-13T03:37:07.135Z,41.53
2018-04-13T03:39:34.519Z,41.17
2018-04-13T03:42:01.902Z,41.93
2018-04-13T03:44:29.286Z,39.60
2018-04-13T03:46:56.666Z,41.00
2018-04-13T03:49:24.047Z,41.67
2018-04-13T03:51:51.867Z,43.03
2018-04-13T03:54:19.262Z,42.50
2018-04-13T03:56:46.637Z,39.17
2018-04-13T03:59:14.029Z,38.80
2018-04-13T04:01:41.412Z,39.53
2018-04-13T04:04:08.788Z,36.70
2018-04-13T04:06:36.182Z,34.90
2018-04-13T04:09:03.562Z,34.40
2018-04-13T04:11:30.951Z,37.37
2018-04-13T04:13:58.327Z,36.63
2018-04-13T04:16:25.755Z,39.30
2018-04-13T04:18:53.096Z,45.17
2018-04-13T04:21:32.149Z,45.73
2018-04-13T04:24:11.366Z,41.10
2018-04-13T04:26:50.659Z,45.40
2018-04-13T04:29:18.035Z,39.33
2018-04-13T04:31:45.435Z,42.00
2018-04-13T04:34:12.820Z,43.80
2018-04-13T04:36:40.190Z,42.50
2018-04-13T04:39:07.595Z,41.27
2018-04-13T04:41:34.970Z,40.77
2018-04-13T04:44:02.367Z,39.80
2018-04-13T04:46:29.743Z,42.80
2018-04-13T04:48:57.128Z,41.27
2018-04-13T04:51:24.506Z,40.00
2018-04-13T04:53:51.915Z,37.07
2018-04-13T04:56:19.291Z,38.50
2018-04-13T04:58:46.675Z,42.73
2018-04-13T05:01:14.063Z,41.60
2018-04-13T05:03:41.446Z,39.70
2018-04-13T05:06:08.826Z,41.43
2018-04-13T05:08:36.215Z,48.50
2018-04-13T05:11:03.609Z,41.10
2018-04-13T05:13:30.987Z,41.70
2018-04-13T05:15:58.379Z,44.70
2018-04-13T05:18:25.764Z,42.83
2018-04-13T05:20:53.151Z,43.30
2018-04-13T05:23:20.542Z,42.33
2018-04-13T05:25:47.947Z,41.17
2018-04-13T05:28:15.335Z,42.67
2018-04-13T05:30:42.727Z,42.83
2018-04-13T05:33:10.122Z,47.60
2018-04-13T05:35:37.511Z,44.23
2018-04-13T05:38:04.893Z,42.63
2018-04-13T05:40:32.282Z,39.90
2018-04-13T05:42:59.659Z,44.60
2018-04-13T05:45:27.052Z,43.87
2018-04-13T05:47:54.443Z,42.43
2018-04-13T05:50:21.830Z,44.60
2018-04-13T05:52:49.222Z,40.77
2018-04-13T05:55:16.820Z,39.70
2018-04-13T05:57:44.203Z,42.27
2018-04-13T06:00:11.643Z,41.30
2018-04-13T06:02:38.979Z,42.70
2018-04-13T06:05:06.367Z,41.17
2018-04-13T06:07:33.751Z,42.20
2018-04-13T06:10:01.139Z,41.47
2018-04-13T06:12:28.534Z,41.13
2018-04-13T06:14:55.911Z,43.70
2018-04-13T06:17:23.306Z,43.70
2018-04-13T06:19:50.691Z,42.17
2018-04-13T06:22:18.079Z,43.93
2018-04-13T06:24:45.459Z,41.33
2018-04-13T06:27:12.841Z,42.80
2018-04-13T06:29:40.235Z,44.67
2018-04-13T06:32:07.630Z,44.73
2018-04-13T06:34:35.023Z,46.83
2018-04-13T06:37:02.408Z,43.57
2018-04-13T06:39:29.804Z,47.73
2018-04-13T06:41:57.182Z,44.20
2018-04-13T06:44:24.571Z,42.97
2018-04-13T06:46:51.970Z,41.17
2018-04-13T06:49:19.355Z,42.00
2018-04-13T06:51:46.739Z,39.67
2018-04-13T06:54:14.272Z,39.40
2018-04-13T06:56:41.694Z,35.73
2018-04-13T06:59:09.058Z,39.47
2018-04-13T07:01:36.452Z,39.60
2018-04-13T07:04:03.838Z,38.07
2018-04-13T07:06:31.219Z,43.30
2018-04-13T07:08:58.604Z,39.93
2018-04-13T07:11:25.993Z,37.97
2018-04-13T07:13:53.387Z,38.20
2018-04-13T07:16:20.767Z,36.10
2018-04-13T07:18:48.188Z,39.57
2018-04-13T07:21:15.564Z,37.50
2018-04-13T07:23:42.946Z,40.53
2018-04-13T07:26:10.338Z,39.77
2018-04-13T07:28:37.731Z,36.83
2018-04-13T07:31:05.126Z,38.17
2018-04-13T07:33:32.512Z,40.20
2018-04-13T07:36:00.223Z,41.00
2018-04-13T07:38:27.608Z,39.93
2018-04-13T07:40:54.986Z,40.40
2018-04-13T07:43:22.370Z,42.17
2018-04-13T07:45:50.005Z,41.80
2018-04-13T07:48:17.794Z,41.77
2018-04-13T07:50:44.528Z,43.70
2018-04-13T07:53:11.922Z,42.83
2018-04-13T07:55:39.304Z,42.57
2018-04-13T07:58:06.734Z,41.53
2018-04-13T08:00:34.680Z,40.23
2018-04-13T08:03:01.479Z,39.97
2018-04-13T08:05:28.867Z,40.17
2018-04-13T08:07:56.302Z,37.33
2018-04-13T08:10:23.687Z,38.43
2018-04-13T08:12:51.071Z,39.00
2018-04-13T08:15:18.464Z,37.27
2018-04-13T08:17:45.852Z,39.20
2018-04-13T08:20:13.235Z,39.40
2018-04-13T08:22:40.619Z,41.40
2018-04-13T08:25:07.998Z,43.53
2018-04-13T08:27:35.387Z,41.10
2018-04-13T08:30:02.855Z,43.57
2018-04-13T08:32:30.248Z,40.87
2018-04-13T08:34:57.632Z,42.20
2018-04-13T08:37:25.019Z,44.80
2018-04-13T08:39:52.405Z,46.73
2018-04-13T08:42:19.778Z,45.90
2018-04-13T08:44:47.167Z,51.33
2018-04-13T08:47:14.575Z,47.20
2018-04-13T08:49:41.927Z,60.80
2018-04-13T08:52:09.334Z,57.67
2018-04-13T08:54:36.691Z,51.77
2018-04-13T08:57:04.085Z,51.90
2018-04-13T08:59:31.470Z,53.77
2018-04-13T09:01:58.856Z,56.80
2018-04-13T09:04:26.234Z,62.60
2018-04-13T09:06:53.623Z,60.13
2018-04-13T09:09:21.023Z,53.70
2018-04-13T09:11:48.424Z,60.73
2018-04-13T09:14:15.809Z,57.80
2018-04-13T09:16:43.187Z,70.20
2018-04-13T09:19:10.579Z,65.07
2018-04-13T09:21:37.963Z,71.43
2018-04-13T09:24:05.351Z,76.37
2018-04-13T09:26:32.731Z,80.80
2018-04-13T09:29:00.129Z,97.00
2018-04-13T09:31:27.511Z,116.23
2018-04-13T09:33:54.904Z,107.73
2018-04-13T09:36:22.292Z,116.43
2018-04-13T09:38:49.679Z,116.40
2018-04-13T09:41:17.071Z,111.07
2018-04-13T09:43:44.480Z,107.70
2018-04-13T09:46:11.914Z,113.57
2018-04-13T09:48:39.254Z,104.83
2018-04-13T09:51:06.651Z,100.70
2018-04-13T09:53:34.039Z,97.53
2018-04-13T09:56:01.424Z,88.40
2018-04-13T09:58:28.810Z,88.17
2018-04-13T10:00:59.979Z,89.27
2018-04-13T10:03:27.367Z,91.87
2018-04-13T10:05:54.767Z,82.97
2018-04-13T10:08:22.147Z,84.00
2018-04-13T10:10:49.554Z,81.03
2018-04-13T10:13:16.959Z,90.20
2018-04-13T10:15:44.365Z,78.93
2018-04-13T10:18:11.726Z,79.03
2018-04-13T10:20:39.116Z,87.10
2018-04-13T10:23:06.495Z,81.93
2018-04-13T10:25:33.886Z,70.47
2018-04-13T10:28:01.271Z,77.77
2018-04-13T10:30:29.079Z,68.40
2018-04-13T10:32:56.505Z,63.70
2018-04-13T10:35:23.891Z,61.83
2018-04-13T10:37:51.281Z,61.17
2018-04-13T10:40:18.663Z,69.53
2018-04-13T10:42:46.046Z,72.83
2018-04-13T10:45:13.449Z,67.13
2018-04-13T10:47:40.839Z,63.23
2018-04-13T10:50:08.222Z,61.40
2018-04-13T10:52:35.622Z,52.30
2018-04-13T10:55:03.013Z,53.53
2018-04-13T10:57:30.399Z,56.57
2018-04-13T10:59:57.782Z,52.30
2018-04-13T11:02:25.175Z,51.70
2018-04-13T11:04:52.563Z,56.17
2018-04-13T11:07:19.955Z,60.80
2018-04-13T11:09:47.347Z,60.93
2018-04-13T11:12:16.467Z,64.33
2018-04-13T11:14:43.842Z,57.07
2018-04-13T11:17:11.290Z,50.70
2018-04-13T11:19:38.675Z,55.67
2018-04-13T11:22:06.059Z,48.30
2018-04-13T11:24:33.442Z,41.17
2018-04-13T11:27:00.827Z,45.47
2018-04-13T11:29:28.207Z,41.77
2018-04-13T11:31:55.595Z,40.00
2018-04-13T11:34:23.070Z,41.03
2018-04-13T11:36:50.496Z,36.60
2018-04-13T11:39:17.915Z,36.70
2018-04-13T11:41:45.294Z,39.83
2018-04-13T11:44:12.687Z,40.83
2018-04-13T11:46:40.071Z,34.97
2018-04-13T11:49:07.460Z,34.13
2018-04-13T11:51:34.843Z,28.80
2018-04-13T11:54:02.250Z,29.57
2018-04-13T11:56:29.630Z,32.63
2018-04-13T11:58:57.022Z,38.77
2018-04-13T12:01:24.415Z,31.83
2018-04-13T12:03:51.796Z,22.43
2018-04-13T12:06:19.183Z,26.30
2018-04-13T12:08:46.567Z,27.97
2018-04-13T12:11:13.947Z,26.00
2018-04-13T12:13:41.334Z,24.03
2018-04-13T12:16:08.727Z,25.17
2018-04-13T12:18:36.110Z,23.10
2018-04-13T12:21:03.534Z,22.87
2018-04-13T12:23:30.915Z,22.37
2018-04-13T12:25:58.295Z,21.33
2018-04-13T12:28:25.691Z,20.10
2018-04-13T12:30:53.115Z,20.70
2018-04-13T12:33:20.511Z,19.60
2018-04-13T12:35:47.895Z,20.67
2018-04-13T12:38:15.305Z,19.87
2018-04-13T12:40:42.666Z,20.63
2018-04-13T12:43:10.064Z,19.80
2018-04-13T12:45:37.455Z,19.63
2018-04-13T12:48:04.826Z,19.67
2018-04-13T12:50:32.228Z,18.47
2018-04-13T12:52:59.628Z,18.60
2018-04-13T12:55:27.003Z,19.73
2018-04-13T12:57:54.382Z,18.53
2018-04-13T13:00:22.027Z,20.67
2018-04-13T13:02:49.420Z,18.90
2018-04-13T13:05:16.795Z,19.17
2018-04-13T13:07:44.187Z,21.13
2018-04-13T13:10:11.570Z,19.30
2018-04-13T13:12:38.968Z,19.07
2018-04-13T13:15:06.435Z,18.97
2018-04-13T13:17:33.912Z,20.10
2018-04-13T13:20:01.299Z,17.77
2018-04-13T13:22:28.691Z,17.60
2018-04-13T13:24:56.127Z,16.97
2018-04-13T13:27:23.510Z,16.30
2018-04-13T13:29:50.900Z,16.23
2018-04-13T13:32:18.279Z,15.07
2018-04-13T13:34:45.670Z,14.20
2018-04-13T13:37:13.054Z,13.53
2018-04-13T13:39:40.439Z,13.70
2018-04-13T13:42:07.824Z,14.50
2018-04-13T13:44:35.207Z,13.87
2018-04-13T13:47:02.601Z,14.63
2018-04-13T13:49:30.027Z,13.60
2018-04-13T13:51:57.817Z,14.20
2018-04-13T13:54:25.200Z,14.70
2018-04-13T13:56:52.608Z,14.67
2018-04-13T13:59:20.001Z,14.40
2018-04-13T14:01:47.376Z,14.87
2018-04-13T14:04:14.899Z,15.10
2018-04-13T14:06:42.293Z,13.70
2018-04-13T14:09:09.678Z,15.40
2018-04-13T14:11:37.071Z,15.43
2018-04-13T14:14:04.462Z,15.20
2018-04-13T14:16:31.983Z,14.57
2018-04-13T14:18:59.369Z,15.20
2018-04-13T14:21:26.754Z,14.80
2018-04-13T14:23:54.148Z,15.13
2018-04-13T14:26:21.551Z,15.90
2018-04-13T14:28:48.936Z,16.40
2018-04-13T14:31:16.315Z,16.30
2018-04-13T14:33:43.702Z,16.00
2018-04-13T14:36:11.092Z,16.77
2018-04-13T14:38:38.491Z,16.30
2018-04-13T14:41:05.871Z,17.40
2018-04-13T14:43:33.264Z,16.50
2018-04-13T14:46:00.647Z,17.83
2018-04-13T14:48:28.035Z,18.67
2018-04-13T14:50:55.592Z,16.40
2018-04-13T14:53:22.915Z,17.03
2018-04-13T14:55:50.313Z,17.17
2018-04-13T14:58:17.691Z,17.70
2018-04-13T15:00:45.090Z,16.60
2018-04-13T15:03:12.471Z,17.43
2018-04-13T15:05:39.852Z,18.30
2018-04-13T15:08:07.235Z,16.73
2018-04-13T15:10:34.620Z,17.53
2018-04-13T15:13:02.011Z,16.40
2018-04-13T15:15:29.388Z,16.80
2018-04-13T15:17:56.786Z,18.13
2018-04-13T15:20:24.168Z,18.13
2018-04-13T15:22:51.555Z,16.50
2018-04-13T15:25:18.950Z,17.43
2018-04-13T15:27:46.326Z,15.73
2018-04-13T15:30:13.991Z,15.80
2018-04-13T15:32:41.484Z,16.03
2018-04-13T15:35:08.865Z,16.93
2018-04-13T15:37:36.260Z,15.80
2018-04-13T15:40:03.691Z,15.67
2018-04-13T15:42:31.116Z,14.77
2018-04-13T15:44:58.933Z,14.70
2018-04-13T15:47:26.379Z,14.73
2018-04-13T15:49:53.785Z,14.33
2018-04-13T15:52:21.159Z,15.20
2018-04-13T15:54:48.580Z,14.87
2018-04-13T15:57:16.011Z,15.00
2018-04-13T15:59:43.415Z,15.93
2018-04-13T16:02:10.826Z,15.80
2018-04-13T16:04:38.574Z,15.63
2018-04-13T16:07:05.983Z,15.70
2018-04-13T16:09:33.356Z,16.37
2018-04-13T16:12:00.739Z,15.63
2018-04-13T16:14:28.123Z,15.10
2018-04-13T16:16:55.515Z,13.40
2018-04-13T16:19:22.914Z,16.07
2018-04-13T16:21:50.307Z,15.60
2018-04-13T16:24:17.690Z,15.33
2018-04-13T16:26:45.089Z,14.23
2018-04-13T16:29:12.463Z,16.23
2018-04-13T16:31:39.851Z,14.07
2018-04-13T16:34:07.239Z,15.33
2018-04-13T16:36:34.627Z,16.27
2018-04-13T16:39:02.039Z,16.27
2018-04-13T16:41:29.405Z,15.70
2018-04-13T16:43:56.786Z,16.13
2018-04-13T16:46:24.175Z,17.03
2018-04-13T16:48:51.560Z,17.80
2018-04-13T16:51:18.949Z,17.30
2018-04-13T16:53:46.327Z,16.33
2018-04-13T16:56:13.747Z,16.60
2018-04-13T16:58:41.128Z,15.40
2018-04-13T17:01:08.510Z,17.17
2018-04-13T17:03:35.904Z,16.70
2018-04-13T17:06:03.283Z,17.10
2018-04-13T17:08:30.666Z,18.37
2018-04-13T17:10:58.065Z,17.50
2018-04-13T17:13:25.471Z,17.13
2018-04-13T17:15:52.855Z,17.10
2018-04-13T17:18:20.244Z,18.37
2018-04-13T17:20:47.627Z,18.00
2018-04-13T17:23:15.015Z,17.70
2018-04-13T17:25:42.402Z,16.83
2018-04-13T17:28:09.783Z,16.53
2018-04-13T17:30:37.178Z,17.47
2018-04-13T17:33:04.562Z,18.10
2018-04-13T17:35:31.943Z,17.83
2018-04-13T17:37:59.347Z,16.77
2018-04-13T17:40:26.837Z,16.50
2018-04-13T17:42:54.187Z,17.63
2018-04-13T17:45:21.574Z,19.40
2018-04-13T17:47:48.974Z,16.90
2018-04-13T17:50:16.355Z,17.00
2018-04-13T17:52:43.734Z,18.00
2018-04-13T17:55:12.007Z,17.50
2018-04-13T17:57:39.382Z,17.80
2018-04-13T18:00:06.762Z,18.90
2018-04-13T18:02:34.155Z,20.17
2018-04-13T18:05:01.547Z,20.07
2018-04-13T18:07:29.032Z,20.60
2018-04-13T18:09:56.493Z,21.30
2018-04-13T18:12:23.959Z,20.43
2018-04-13T18:14:51.338Z,21.20
2018-04-13T18:17:18.743Z,20.77
2018-04-13T18:19:46.126Z,21.47
2018-04-13T18:22:13.923Z,21.23
2018-04-13T18:24:41.306Z,21.63
2018-04-13T18:27:08.696Z,20.33
2018-04-13T18:29:36.084Z,20.43
2018-04-13T18:32:03.463Z,20.17
2018-04-13T18:34:30.859Z,19.70
2018-04-13T18:36:58.258Z,21.00
2018-04-13T18:39:25.669Z,22.27
2018-04-13T18:41:53.050Z,20.33
2018-04-13T18:44:20.436Z,19.80
2018-04-13T18:46:47.823Z,20.30
2018-04-13T18:49:15.222Z,19.40
2018-04-13T18:51:42.607Z,20.50
2018-04-13T18:54:10.002Z,20.33
2018-04-13T18:56:37.383Z,19.40
2018-04-13T18:59:04.775Z,20.10
2018-04-13T19:01:32.220Z,19.70
2018-04-13T19:03:59.615Z,19.90
2018-04-13T19:06:27.058Z,19.13
2018-04-13T19:08:54.446Z,18.50
2018-04-13T19:11:21.834Z,19.53
2018-04-13T19:13:49.227Z,19.87
2018-04-13T19:16:16.616Z,20.67
2018-04-13T19:18:44.015Z,19.67
2018-04-13T19:21:11.402Z,18.53
2018-04-13T19:23:38.786Z,17.33
2018-04-13T19:26:06.246Z,19.13
2018-04-13T19:28:33.562Z,19.27
2018-04-13T19:31:00.955Z,19.27
2018-04-13T19:33:28.360Z,20.10
2018-04-13T19:35:55.734Z,20.70
2018-04-13T19:38:23.115Z,20.33
2018-04-13T19:40:50.495Z,19.90
2018-04-13T19:43:17.928Z,19.33
2018-04-13T19:45:45.299Z,19.33
2018-04-13T19:48:12.688Z,19.63
2018-04-13T19:50:40.081Z,19.50
2018-04-13T19:53:07.462Z,20.17
2018-04-13T19:55:34.855Z,21.77
2018-04-13T19:58:02.281Z,21.83
2018-04-13T20:00:29.961Z,20.67
2018-04-13T20:02:57.344Z,22.30
2018-04-13T20:05:24.727Z,21.63
2018-04-13T20:07:52.119Z,20.67
2018-04-13T20:10:19.503Z,22.07
2018-04-13T20:12:46.897Z,23.43
2018-04-13T20:15:24.987Z,21.13
2018-04-13T20:17:52.378Z,23.63
2018-04-13T20:20:19.762Z,25.33
2018-04-13T20:22:47.139Z,27.27
2018-04-13T20:25:14.535Z,24.97
2018-04-13T20:27:41.919Z,24.73
2018-04-13T20:30:09.325Z,25.10
2018-04-13T20:32:36.702Z,24.73
2018-04-13T20:35:04.090Z,26.10
2018-04-13T20:37:31.478Z,24.83
2018-04-13T20:39:58.866Z,25.20
2018-04-13T20:42:26.567Z,24.67
2018-04-13T20:44:53.951Z,24.23
2018-04-13T20:47:21.335Z,23.43
2018-04-13T20:49:48.719Z,24.13
2018-04-13T20:52:16.099Z,23.73
2018-04-13T20:54:43.521Z,24.20
2018-04-13T20:57:10.890Z,22.93
2018-04-13T20:59:38.271Z,23.73
2018-04-13T21:02:05.662Z,23.53
2018-04-13T21:04:33.042Z,22.40
2018-04-13T21:07:00.431Z,23.03
2018-04-13T21:09:27.815Z,23.90
2018-04-13T21:11:55.194Z,23.30
2018-04-13T21:14:22.578Z,23.43
2018-04-13T21:16:49.963Z,23.53
2018-04-13T21:19:17.355Z,22.57
2018-04-13T21:21:44.735Z,22.53
2018-04-13T21:24:12.114Z,23.47
2018-04-13T21:26:39.509Z,23.10
2018-04-13T21:29:06.891Z,24.83
2018-04-13T21:31:34.692Z,25.03
2018-04-13T21:34:02.066Z,25.27
2018-04-13T21:36:29.455Z,23.07
2018-04-13T21:38:56.844Z,23.97
2018-04-13T21:41:24.234Z,25.20
2018-04-13T21:43:51.622Z,24.27
2018-04-13T21:46:19.028Z,26.23
2018-04-13T21:48:46.409Z,25.73
2018-04-13T21:51:13.795Z,26.93
2018-04-13T21:53:41.175Z,25.87
2018-04-13T21:56:08.567Z,25.60
2018-04-13T21:58:35.955Z,26.23
2018-04-13T22:01:03.359Z,26.57
2018-04-13T22:03:30.815Z,28.40
2018-04-13T22:05:58.206Z,29.47
2018-04-13T22:08:25.591Z,28.07
2018-04-13T22:10:52.977Z,26.80
2018-04-13T22:13:30.907Z,27.03
2018-04-13T22:15:58.283Z,25.70
2018-04-13T22:18:25.662Z,26.73
2018-04-13T22:23:25.879Z,25.83
2018-04-13T22:25:53.270Z,27.30
2018-04-13T22:28:20.658Z,25.47
2018-04-13T22:30:48.040Z,28.20
2018-04-13T22:33:15.432Z,26.53
2018-04-13T22:35:42.811Z,27.33
2018-04-13T22:38:10.210Z,28.80
2018-04-13T22:40:37.595Z,29.70
2018-04-13T22:43:04.978Z,30.20
2018-04-13T22:45:32.478Z,32.47
2018-04-13T22:47:59.866Z,28.17
2018-04-13T22:50:27.263Z,29.50
2018-04-13T22:52:54.650Z,30.23
2018-04-13T22:55:22.039Z,30.40
2018-04-13T22:57:49.461Z,29.60
2018-04-13T23:00:16.830Z,29.50
2018-04-13T23:02:44.241Z,30.00
2018-04-13T23:05:11.622Z,30.13
2018-04-13T23:07:39.011Z,31.90
2018-04-13T23:10:06.504Z,32.80
2018-04-13T23:12:33.891Z,32.33
2018-04-13T23:15:01.300Z,32.30
2018-04-13T23:17:28.690Z,30.83
2018-04-13T23:19:56.083Z,29.17
2018-04-13T23:22:35.122Z,30.20
2018-04-13T23:25:02.514Z,31.60
2018-04-13T23:27:29.907Z,32.90
2018-04-13T23:29:57.297Z,31.73
2018-04-13T23:32:24.683Z,31.20
2018-04-13T23:34:52.070Z,29.47
2018-04-13T23:37:19.462Z,33.13
2018-04-13T23:39:46.862Z,32.27
2018-04-13T23:42:14.262Z,34.70
2018-04-13T23:44:41.639Z,34.00
2018-04-13T23:47:09.033Z,30.83
2018-04-13T23:49:36.424Z,30.83
2018-04-13T23:52:03.818Z,31.47
2018-04-13T23:54:31.206Z,33.37
2018-04-13T23:56:58.595Z,31.50
2018-04-13T23:59:25.989Z,35.13
